BBRO2: Mountain Fork, Broken Bow Rereg

Data processed at Thu Jan 04 2018 23:33


All information presented herein is the property of the government of the United States of America and may be revised or deleted at any time without prior notice.
Dissemination of this information without the expressed written consent of the Public Affairs Office, Tulsa District U.S. Army Corps of Engineers is strictly prohibited.
These data are gathered electronically and, as presented, have not undergone any form of quality control. These data are not guaranteed to be valid or correct.
Go to home page.
Go to station list.

Upstream stations:

Downstream station:
Previous Day
Next Day
Current Day
    
SHEF ID:       BBRO2     Mountain Fork Re-regulation Dam
STATION TYPE:  

                STAGE  RIV-FLOW   VOLTAGE  BAT-LOAD
                   ft       cfs      volt      volt
              Ccp-Rev   Ccp-Rev   Ccp-Rev   Ccp-Rev
(US/Central)
01/02 00:00    389.68       473     13.50     13.24
01/02 01:00    389.53       446     13.50     13.24
01/02 02:00    389.40       423     13.50     13.24
01/02 03:00    389.28       401     13.50     13.24
01/02 04:00    389.17       381     13.50     13.24
01/02 05:00    389.08       365     13.50     13.24
01/02 06:00    388.98       347     13.50     13.30
01/02 07:00    388.90       333     13.50     13.24
01/02 08:00    388.83       321     13.50     13.30
01/02 09:00    389.24       394     13.50     13.30
01/02 10:00    392.23      1408     13.50     13.24
01/02 11:00    393.88      2241     13.50     13.24
01/02 12:00    394.00      2310     13.50     13.30
01/02 13:00    393.42      1977     13.50     12.89
01/02 14:00    392.87      1680     13.50     13.24
01/02 15:00    392.38      1472     13.50     13.24
01/02 16:00    391.94      1287     13.50     13.30
01/02 17:00    391.54      1133     13.60     13.30
01/02 18:00    391.17       990     13.50     13.30
01/02 19:00    390.87       874     13.50     13.24
01/02 20:00    390.59       763     13.50     13.24
01/02 21:00    390.35       668     13.50     13.24
01/02 22:00    390.13       581     13.50     13.24
01/02 23:00    389.94       519     13.50     13.24